createdAt,value
2022-07-29T00:02:27.160Z,17.90
2022-07-29T00:04:54.659Z,17.90
2022-07-29T00:07:21.442Z,17.90
2022-07-29T00:09:52.129Z,17.80
2022-07-29T00:12:25.292Z,17.70
2022-07-29T00:14:57.102Z,18.00
2022-07-29T00:17:24.899Z,17.90
2022-07-29T00:19:52.089Z,17.80
2022-07-29T00:22:19.045Z,17.80
2022-07-29T00:24:46.067Z,17.80
2022-07-29T00:27:12.774Z,17.80
2022-07-29T00:29:39.787Z,17.90
2022-07-29T00:32:06.873Z,17.90
2022-07-29T00:34:52.472Z,17.70
2022-07-29T00:37:19.171Z,17.70
2022-07-29T00:39:47.364Z,17.50
2022-07-29T00:42:14.117Z,17.50
2022-07-29T00:44:42.561Z,17.60
2022-07-29T00:47:11.422Z,17.40
2022-07-29T00:49:40.720Z,17.40
2022-07-29T00:52:09.139Z,17.20
2022-07-29T00:54:39.138Z,17.20
2022-07-29T00:57:11.734Z,17.20
2022-07-29T00:59:38.742Z,17.20
2022-07-29T01:02:05.630Z,17.20
2022-07-29T01:04:33.723Z,17.20
2022-07-29T01:07:03.680Z,17.20
2022-07-29T01:09:37.279Z,17.20
2022-07-29T01:12:17.645Z,17.10
2022-07-29T01:14:45.514Z,17.20
2022-07-29T01:17:21.773Z,17.20
2022-07-29T01:19:58.534Z,17.30
2022-07-29T01:22:34.472Z,17.20
2022-07-29T01:25:29.523Z,17.30
2022-07-29T01:28:08.996Z,17.20
2022-07-29T01:30:40.046Z,17.30
2022-07-29T01:33:34.775Z,17.10
2022-07-29T01:36:06.107Z,17.20
2022-07-29T01:38:32.908Z,17.20
2022-07-29T01:41:08.340Z,17.20
2022-07-29T01:43:48.029Z,17.20
2022-07-29T01:46:33.250Z,17.20
2022-07-29T01:49:18.626Z,17.20
2022-07-29T01:51:51.624Z,17.20
2022-07-29T01:54:27.341Z,17.20
2022-07-29T01:56:58.168Z,17.10
2022-07-29T01:59:26.345Z,17.00
2022-07-29T02:01:56.293Z,17.20
2022-07-29T02:04:29.537Z,17.20
2022-07-29T02:07:03.006Z,17.10
2022-07-29T02:09:32.521Z,17.10
2022-07-29T02:12:02.595Z,17.10
2022-07-29T02:14:33.996Z,17.10
2022-07-29T02:17:02.987Z,17.10
2022-07-29T02:19:32.179Z,17.00
2022-07-29T02:22:00.604Z,16.90
2022-07-29T02:24:29.301Z,16.90
2022-07-29T02:26:59.153Z,17.00
2022-07-29T02:29:29.118Z,17.00
2022-07-29T02:31:56.957Z,17.00
2022-07-29T02:34:25.794Z,17.00
2022-07-29T02:36:53.341Z,16.90
2022-07-29T02:39:20.955Z,17.00
2022-07-29T02:41:50.009Z,16.80
2022-07-29T02:44:22.472Z,16.90
2022-07-29T02:47:02.753Z,17.00
2022-07-29T02:49:50.052Z,17.00
2022-07-29T02:52:27.441Z,17.00
2022-07-29T02:55:01.494Z,16.90
2022-07-29T02:58:01.132Z,16.80
2022-07-29T03:00:35.355Z,16.90
2022-07-29T03:03:07.145Z,16.80
2022-07-29T03:05:34.474Z,16.90
2022-07-29T03:08:06.919Z,17.00
2022-07-29T03:10:34.998Z,17.00
2022-07-29T03:13:02.820Z,16.90
2022-07-29T03:15:30.168Z,16.90
2022-07-29T03:17:57.947Z,16.90
2022-07-29T03:20:25.384Z,16.80
2022-07-29T03:22:52.603Z,16.90
2022-07-29T03:25:20.857Z,16.90
2022-07-29T03:27:49.127Z,16.80
2022-07-29T03:30:18.179Z,16.70
2022-07-29T03:32:49.518Z,16.70
2022-07-29T03:35:22.208Z,16.70
2022-07-29T03:37:49.840Z,16.70
2022-07-29T03:40:32.523Z,16.60
2022-07-29T03:43:02.120Z,16.70
2022-07-29T03:45:30.659Z,16.60
2022-07-29T03:48:08.517Z,16.60
2022-07-29T03:50:35.877Z,16.60
2022-07-29T03:53:03.993Z,16.50
2022-07-29T03:55:37.541Z,16.30
2022-07-29T03:58:04.920Z,16.30
2022-07-29T04:00:34.384Z,16.20
2022-07-29T04:03:02.492Z,16.30
2022-07-29T04:05:29.219Z,16.40
2022-07-29T04:07:56.291Z,16.30
2022-07-29T04:10:30.612Z,16.30
2022-07-29T04:13:00.465Z,16.30
2022-07-29T04:15:31.429Z,16.20
2022-07-29T04:18:00.186Z,16.20
2022-07-29T04:20:27.201Z,16.30
2022-07-29T04:22:54.792Z,16.30
2022-07-29T04:25:21.589Z,16.30
2022-07-29T04:28:03.974Z,16.30
2022-07-29T04:30:32.508Z,16.30
2022-07-29T04:33:00.221Z,16.40
2022-07-29T04:35:27.076Z,16.60
2022-07-29T04:37:54.964Z,16.70
2022-07-29T04:40:21.927Z,16.50
2022-07-29T04:42:49.445Z,16.70
2022-07-29T04:45:16.583Z,16.70
2022-07-29T04:47:49.405Z,16.50
2022-07-29T04:50:16.299Z,16.70
2022-07-29T04:52:43.410Z,16.70
2022-07-29T04:55:10.958Z,16.90
2022-07-29T04:57:38.201Z,16.80
2022-07-29T05:00:06.681Z,16.90
2022-07-29T05:02:33.771Z,16.90
2022-07-29T05:05:00.562Z,17.10
2022-07-29T05:07:27.631Z,17.20
2022-07-29T05:09:54.544Z,17.30
2022-07-29T05:12:21.583Z,17.30
2022-07-29T05:14:48.312Z,17.30
2022-07-29T05:17:15.545Z,17.30
2022-07-29T05:19:42.306Z,17.10
2022-07-29T05:22:09.304Z,17.20
2022-07-29T05:24:36.027Z,17.40
2022-07-29T05:27:03.054Z,17.50
2022-07-29T05:29:44.588Z,17.60
2022-07-29T05:32:13.971Z,17.30
2022-07-29T05:34:50.928Z,17.60
2022-07-29T05:37:19.753Z,17.80
2022-07-29T05:39:47.456Z,17.90
2022-07-29T05:42:16.395Z,17.90
2022-07-29T05:44:43.360Z,17.80
2022-07-29T05:47:10.065Z,17.80
2022-07-29T05:49:37.230Z,18.20
2022-07-29T05:52:04.420Z,18.00
2022-07-29T05:54:31.918Z,17.90
2022-07-29T05:56:58.796Z,18.20
2022-07-29T05:59:30.164Z,18.20
2022-07-29T06:01:58.209Z,18.50
2022-07-29T06:04:25.610Z,18.30
2022-07-29T06:06:54.651Z,18.20
2022-07-29T06:09:21.801Z,18.30
2022-07-29T06:11:48.660Z,18.30
2022-07-29T06:14:16.637Z,18.30
2022-07-29T06:16:44.000Z,18.60
2022-07-29T06:19:11.180Z,18.90
2022-07-29T06:21:42.269Z,18.80
2022-07-29T06:24:09.777Z,18.50
2022-07-29T06:26:39.715Z,18.50
2022-07-29T06:29:07.787Z,19.00
2022-07-29T06:31:34.791Z,19.20
2022-07-29T06:34:02.139Z,19.70
2022-07-29T06:36:30.411Z,19.20
2022-07-29T06:38:57.675Z,19.80
2022-07-29T06:41:24.947Z,19.70
2022-07-29T06:43:54.638Z,19.70
2022-07-29T06:46:24.335Z,19.50
2022-07-29T06:48:53.342Z,19.40
2022-07-29T06:51:22.749Z,19.80
2022-07-29T06:54:00.306Z,20.10
2022-07-29T06:56:39.524Z,20.00
2022-07-29T06:59:08.311Z,19.60
2022-07-29T07:01:36.525Z,20.00
2022-07-29T07:04:03.561Z,20.10
2022-07-29T07:06:30.446Z,19.90
2022-07-29T07:08:57.678Z,20.30
2022-07-29T07:11:24.663Z,20.90
2022-07-29T07:13:51.958Z,20.50
2022-07-29T07:16:18.840Z,20.60
2022-07-29T07:18:46.488Z,21.20
2022-07-29T07:21:18.761Z,20.60
2022-07-29T07:23:47.305Z,20.80
2022-07-29T07:26:14.515Z,20.80
2022-07-29T07:28:41.694Z,20.70
2022-07-29T07:31:08.454Z,20.60
2022-07-29T07:33:35.494Z,20.40
2022-07-29T07:36:02.293Z,21.40
2022-07-29T07:38:29.570Z,21.10
2022-07-29T07:40:56.264Z,21.40
2022-07-29T07:43:23.917Z,21.50
2022-07-29T07:45:50.746Z,21.30
2022-07-29T07:48:18.010Z,21.50
2022-07-29T07:50:44.801Z,21.40
2022-07-29T07:53:12.164Z,21.40
2022-07-29T07:58:30.925Z,21.60
2022-07-29T08:00:57.807Z,20.80
2022-07-29T08:03:24.933Z,21.00
2022-07-29T08:05:52.779Z,21.10
2022-07-29T08:08:19.910Z,21.30
2022-07-29T08:10:52.997Z,21.80
2022-07-29T08:13:21.569Z,21.60
2022-07-29T08:15:48.673Z,21.10
2022-07-29T08:18:15.421Z,21.80
2022-07-29T08:20:42.429Z,21.80
2022-07-29T08:23:11.901Z,22.00
2022-07-29T08:25:42.788Z,21.60
2022-07-29T08:28:09.623Z,21.10
2022-07-29T08:30:36.397Z,21.20
2022-07-29T08:33:03.702Z,21.30
2022-07-29T08:35:35.037Z,21.80
2022-07-29T08:38:04.662Z,21.90
2022-07-29T08:40:32.528Z,21.70
2022-07-29T08:43:10.194Z,22.10
2022-07-29T08:45:57.509Z,22.50
2022-07-29T08:48:25.624Z,22.50
2022-07-29T08:50:59.774Z,22.30
2022-07-29T08:53:28.182Z,22.40
2022-07-29T08:55:55.788Z,22.40
2022-07-29T08:58:24.613Z,22.70
2022-07-29T09:00:56.950Z,22.70
2022-07-29T09:03:31.647Z,22.70
2022-07-29T09:05:59.927Z,23.20
2022-07-29T09:08:27.222Z,23.70
2022-07-29T09:10:54.423Z,23.30
2022-07-29T09:13:21.428Z,23.50
2022-07-29T09:15:48.242Z,24.00
2022-07-29T09:18:42.556Z,23.80
2022-07-29T09:21:31.370Z,24.40
2022-07-29T09:24:09.892Z,24.40
2022-07-29T09:26:40.863Z,24.30
2022-07-29T09:29:15.912Z,24.60
2022-07-29T09:31:45.985Z,24.90
2022-07-29T09:34:15.271Z,24.70
2022-07-29T09:36:47.533Z,24.70
2022-07-29T09:39:15.576Z,24.30
2022-07-29T09:41:50.115Z,24.50
2022-07-29T09:44:17.636Z,24.90
2022-07-29T09:46:58.987Z,25.20
2022-07-29T09:49:26.735Z,25.80
2022-07-29T09:52:10.934Z,25.80
2022-07-29T09:54:38.019Z,25.80
2022-07-29T09:57:06.859Z,26.40
2022-07-29T09:59:34.598Z,26.30
2022-07-29T10:02:01.659Z,26.40
2022-07-29T10:04:44.428Z,27.20
2022-07-29T10:07:11.217Z,25.90
2022-07-29T10:09:38.321Z,26.10
2022-07-29T10:12:06.237Z,26.70
2022-07-29T10:14:37.029Z,26.60
2022-07-29T10:17:06.289Z,26.60
2022-07-29T10:19:34.559Z,26.60
2022-07-29T10:22:04.496Z,26.80
2022-07-29T10:24:32.721Z,27.10
2022-07-29T10:27:02.292Z,27.60
2022-07-29T10:29:30.299Z,27.60
2022-07-29T10:32:31.777Z,26.10
2022-07-29T10:35:29.213Z,26.30
2022-07-29T10:37:56.908Z,26.10
2022-07-29T10:41:02.726Z,26.70
2022-07-29T10:43:45.180Z,27.20
2022-07-29T10:46:15.404Z,27.10
2022-07-29T10:49:11.541Z,27.50
2022-07-29T10:52:10.559Z,27.30
2022-07-29T10:54:37.937Z,27.80
2022-07-29T10:57:13.819Z,26.90
2022-07-29T10:59:43.249Z,26.80
2022-07-29T11:02:42.299Z,26.50
2022-07-29T11:05:20.479Z,26.50
2022-07-29T11:08:20.188Z,26.60
2022-07-29T11:10:49.346Z,26.10
2022-07-29T11:13:44.073Z,26.20
2022-07-29T11:16:11.458Z,26.50
2022-07-29T11:19:14.079Z,26.60
2022-07-29T11:21:55.003Z,27.30
2022-07-29T11:24:37.099Z,27.90
2022-07-29T11:27:40.719Z,28.20
2022-07-29T11:30:08.520Z,28.70
2022-07-29T11:32:41.312Z,28.40
2022-07-29T11:35:37.467Z,28.00
2022-07-29T11:38:28.019Z,27.60
2022-07-29T11:41:27.258Z,27.30
2022-07-29T11:43:57.065Z,26.90
2022-07-29T11:46:42.184Z,26.90
2022-07-29T11:49:11.469Z,27.00
2022-07-29T11:51:48.568Z,26.70
2022-07-29T11:54:27.560Z,26.10
2022-07-29T11:56:55.873Z,26.40
2022-07-29T11:59:23.097Z,26.40
2022-07-29T12:02:18.412Z,26.30
2022-07-29T12:04:55.346Z,26.50
2022-07-29T12:07:35.251Z,26.60
2022-07-29T12:10:04.243Z,26.70
2022-07-29T12:12:34.334Z,26.80
2022-07-29T12:15:16.231Z,26.80
2022-07-29T12:17:43.192Z,27.10
2022-07-29T12:20:10.501Z,27.40
2022-07-29T12:22:41.987Z,27.80
2022-07-29T12:25:32.681Z,28.60
2022-07-29T12:28:09.320Z,28.70
2022-07-29T12:30:45.082Z,27.30
2022-07-29T12:33:18.033Z,27.20
2022-07-29T12:36:03.491Z,27.10
2022-07-29T12:38:36.070Z,27.00
2022-07-29T12:41:04.500Z,26.60
2022-07-29T12:43:31.803Z,26.30
2022-07-29T12:45:59.049Z,26.00
2022-07-29T12:48:40.615Z,25.90
2022-07-29T12:51:09.692Z,25.90
2022-07-29T12:53:37.449Z,26.00
2022-07-29T12:56:20.618Z,25.80
2022-07-29T12:58:54.075Z,25.70
2022-07-29T13:01:21.872Z,25.60
2022-07-29T13:04:05.592Z,25.70
2022-07-29T13:06:34.172Z,25.70
2022-07-29T13:09:05.146Z,25.70
2022-07-29T13:11:53.225Z,25.70
2022-07-29T13:14:42.658Z,26.10
2022-07-29T13:17:11.699Z,25.90
2022-07-29T13:19:43.073Z,25.80
2022-07-29T13:22:24.270Z,25.80
2022-07-29T13:25:04.895Z,25.90
2022-07-29T13:27:33.988Z,25.70
2022-07-29T13:30:02.762Z,25.60
2022-07-29T13:32:31.720Z,26.10
2022-07-29T13:35:01.093Z,26.60
2022-07-29T13:37:30.660Z,26.40
2022-07-29T13:39:58.770Z,27.00
2022-07-29T13:42:25.955Z,27.10
2022-07-29T13:44:53.417Z,27.10
2022-07-29T13:47:21.420Z,27.00
2022-07-29T13:49:48.708Z,27.90
2022-07-29T13:52:16.459Z,27.20
2022-07-29T13:54:45.531Z,26.60
2022-07-29T13:57:13.622Z,27.20
2022-07-29T13:59:44.085Z,28.10
2022-07-29T14:02:13.208Z,28.20
2022-07-29T14:04:43.706Z,28.50
2022-07-29T14:07:10.966Z,28.30
2022-07-29T14:09:43.256Z,28.90
2022-07-29T14:12:10.250Z,29.40
2022-07-29T14:14:37.879Z,29.20
2022-07-29T14:17:07.589Z,29.00
2022-07-29T14:19:39.404Z,28.70
2022-07-29T14:22:07.696Z,28.90
2022-07-29T14:24:37.548Z,28.90
2022-07-29T14:27:05.991Z,28.50
2022-07-29T14:29:35.191Z,28.10
2022-07-29T14:32:05.963Z,27.70
2022-07-29T14:34:34.665Z,28.20
2022-07-29T14:37:01.632Z,28.10
2022-07-29T14:39:31.661Z,27.60
2022-07-29T14:41:59.175Z,27.70
2022-07-29T14:44:32.418Z,27.60
2022-07-29T14:47:00.703Z,27.00
2022-07-29T14:49:28.427Z,26.60
2022-07-29T14:51:55.364Z,26.00
2022-07-29T14:54:22.817Z,24.90
2022-07-29T14:56:51.783Z,24.50
2022-07-29T14:59:18.860Z,24.40
2022-07-29T15:01:45.642Z,24.60
2022-07-29T15:04:12.682Z,24.70
2022-07-29T15:06:39.784Z,24.70
2022-07-29T15:09:06.819Z,24.50
2022-07-29T15:11:37.031Z,24.70
2022-07-29T15:14:05.735Z,24.50
2022-07-29T15:16:33.103Z,24.90
2022-07-29T15:19:01.070Z,24.80
2022-07-29T15:21:28.524Z,24.80
2022-07-29T15:23:55.657Z,24.70
2022-07-29T15:26:22.439Z,24.40
2022-07-29T15:28:49.283Z,24.30
2022-07-29T15:31:17.464Z,24.10
2022-07-29T15:33:44.174Z,24.20
2022-07-29T15:36:35.798Z,24.10
2022-07-29T15:39:00.664Z,24.00
2022-07-29T15:41:27.550Z,23.90
2022-07-29T15:43:54.625Z,23.90
2022-07-29T15:46:40.018Z,23.50
2022-07-29T15:49:07.945Z,23.40
2022-07-29T15:51:35.005Z,23.20
2022-07-29T15:54:03.646Z,23.00
2022-07-29T15:56:31.559Z,22.70
2022-07-29T15:58:58.669Z,22.60
2022-07-29T16:01:25.942Z,22.50
2022-07-29T16:03:53.258Z,22.40
2022-07-29T16:06:20.791Z,22.30
2022-07-29T16:08:47.573Z,21.90
2022-07-29T16:11:14.673Z,21.50
2022-07-29T16:13:41.464Z,20.70
2022-07-29T16:16:09.205Z,19.60
2022-07-29T16:18:35.992Z,18.50
2022-07-29T16:21:03.213Z,18.10
2022-07-29T16:23:29.954Z,17.70
2022-07-29T16:26:01.232Z,17.70
2022-07-29T16:28:29.600Z,17.40
2022-07-29T16:30:57.510Z,17.30
2022-07-29T16:33:24.704Z,17.30
2022-07-29T16:35:52.720Z,17.10
2022-07-29T16:38:19.424Z,17.10
2022-07-29T16:40:46.692Z,17.10
2022-07-29T16:43:13.899Z,17.00
2022-07-29T16:45:45.981Z,17.00
2022-07-29T16:48:18.027Z,16.90
2022-07-29T16:50:46.017Z,17.10
2022-07-29T16:53:12.775Z,17.10
2022-07-29T16:55:41.983Z,17.00
2022-07-29T16:58:09.788Z,16.80
2022-07-29T17:00:37.069Z,16.90
2022-07-29T17:03:05.421Z,17.20
2022-07-29T17:05:52.656Z,17.10
2022-07-29T17:08:20.054Z,16.90
2022-07-29T17:10:47.307Z,17.20
2022-07-29T17:13:14.378Z,17.40
2022-07-29T17:15:42.842Z,17.20
2022-07-29T17:18:12.813Z,17.20
2022-07-29T17:20:41.642Z,17.30
2022-07-29T17:23:08.749Z,17.30
2022-07-29T17:25:35.992Z,17.30
2022-07-29T17:28:02.688Z,17.40
2022-07-29T17:30:30.241Z,17.40
2022-07-29T17:32:57.101Z,17.50
2022-07-29T17:35:42.598Z,17.40
2022-07-29T17:38:09.292Z,17.60
2022-07-29T17:40:36.337Z,17.60
2022-07-29T17:43:04.707Z,17.60
2022-07-29T17:45:50.068Z,17.50
2022-07-29T17:48:17.888Z,17.40
2022-07-29T17:50:45.635Z,17.50
2022-07-29T17:53:15.673Z,17.60
2022-07-29T17:55:45.626Z,17.60
2022-07-29T17:58:12.759Z,17.70
2022-07-29T18:00:40.088Z,17.60
2022-07-29T18:03:07.330Z,17.50
2022-07-29T18:05:35.368Z,17.60
2022-07-29T18:08:02.352Z,17.60
2022-07-29T18:10:29.462Z,17.50
2022-07-29T18:12:56.435Z,17.50
2022-07-29T18:15:23.465Z,17.50
2022-07-29T18:17:56.926Z,17.40
2022-07-29T18:20:28.236Z,17.30
2022-07-29T18:22:55.035Z,17.40
2022-07-29T18:25:22.887Z,17.40
2022-07-29T18:27:50.273Z,17.50
2022-07-29T18:30:17.533Z,17.50
2022-07-29T18:32:59.232Z,17.50
2022-07-29T18:35:31.738Z,17.50
2022-07-29T18:38:01.264Z,17.60
2022-07-29T18:40:29.720Z,17.50
2022-07-29T18:42:56.532Z,17.50
2022-07-29T18:45:28.401Z,17.40
2022-07-29T18:47:56.998Z,17.40
2022-07-29T18:50:29.184Z,17.50
2022-07-29T18:52:58.683Z,17.40
2022-07-29T18:55:26.207Z,17.40
2022-07-29T18:57:56.009Z,17.50
2022-07-29T19:00:24.884Z,17.40
2022-07-29T19:02:52.673Z,17.40
2022-07-29T19:05:20.051Z,17.50
2022-07-29T19:07:46.878Z,17.40
2022-07-29T19:10:13.911Z,17.50
2022-07-29T19:12:40.735Z,17.40
2022-07-29T19:15:08.496Z,17.40
2022-07-29T19:17:35.188Z,17.50
2022-07-29T19:20:02.944Z,17.50
2022-07-29T19:22:31.096Z,17.50
2022-07-29T19:24:57.874Z,17.50
2022-07-29T19:27:25.836Z,17.50
2022-07-29T19:29:52.548Z,17.50
2022-07-29T19:32:24.789Z,17.50
2022-07-29T19:35:11.520Z,17.50
2022-07-29T19:37:38.242Z,17.50
2022-07-29T19:40:06.276Z,17.50
2022-07-29T19:42:33.277Z,17.60
2022-07-29T19:45:00.034Z,17.50
2022-07-29T19:47:26.844Z,17.60
2022-07-29T19:49:53.902Z,17.60
2022-07-29T19:52:20.615Z,17.60
2022-07-29T19:54:47.647Z,17.60
2022-07-29T19:57:14.379Z,17.70
2022-07-29T19:59:41.549Z,17.60
2022-07-29T20:02:11.120Z,17.70
2022-07-29T20:04:39.224Z,17.70
2022-07-29T20:07:06.689Z,17.70
2022-07-29T20:09:33.953Z,17.70
2022-07-29T20:12:00.883Z,17.70
2022-07-29T20:14:27.940Z,17.70
2022-07-29T20:16:54.667Z,17.70
2022-07-29T20:19:21.884Z,17.70
2022-07-29T20:21:48.565Z,17.70
2022-07-29T20:24:15.569Z,17.60
2022-07-29T20:26:42.314Z,17.60
2022-07-29T20:29:09.440Z,17.60
2022-07-29T20:31:36.368Z,17.70
2022-07-29T20:34:04.057Z,17.70
2022-07-29T20:36:30.758Z,17.60
2022-07-29T20:39:00.169Z,17.70
2022-07-29T20:41:28.924Z,17.60
2022-07-29T20:43:56.294Z,17.70
2022-07-29T20:46:23.098Z,17.60
2022-07-29T20:48:50.168Z,17.60
2022-07-29T20:51:16.930Z,17.60
2022-07-29T20:53:43.947Z,17.60
2022-07-29T20:56:12.358Z,17.60
2022-07-29T20:58:40.662Z,17.60
2022-07-29T21:01:07.799Z,17.60
2022-07-29T21:03:35.334Z,17.00
2022-07-29T21:06:02.609Z,16.70
2022-07-29T21:08:29.635Z,16.70
2022-07-29T21:10:56.673Z,16.70
2022-07-29T21:13:25.773Z,16.80
2022-07-29T21:15:56.745Z,16.80
2022-07-29T21:18:37.155Z,16.80
2022-07-29T21:21:05.271Z,16.90
2022-07-29T21:23:32.292Z,16.90
2022-07-29T21:25:59.017Z,16.90
2022-07-29T21:28:37.106Z,16.80
2022-07-29T21:31:07.809Z,16.90
2022-07-29T21:33:35.503Z,16.90
2022-07-29T21:38:50.724Z,16.90
2022-07-29T21:41:17.402Z,16.90
2022-07-29T21:43:44.484Z,17.00
2022-07-29T21:46:11.257Z,17.00
2022-07-29T21:48:44.192Z,17.00
2022-07-29T21:51:11.368Z,17.10
2022-07-29T21:53:38.361Z,17.10
2022-07-29T21:56:06.758Z,17.00
2022-07-29T21:58:37.303Z,17.00
2022-07-29T22:01:04.107Z,16.90
2022-07-29T22:03:31.186Z,17.00
2022-07-29T22:05:57.914Z,17.10
2022-07-29T22:08:25.034Z,16.90
2022-07-29T22:10:51.704Z,16.90
2022-07-29T22:13:18.765Z,17.00
2022-07-29T22:15:47.175Z,17.00
2022-07-29T22:18:19.480Z,17.00
2022-07-29T22:20:48.776Z,17.10
2022-07-29T22:23:15.898Z,17.00
2022-07-29T22:25:42.708Z,17.00
2022-07-29T22:28:09.708Z,17.00
2022-07-29T22:30:36.510Z,17.00
2022-07-29T22:33:03.552Z,16.90
2022-07-29T22:35:30.255Z,16.90
2022-07-29T22:37:57.237Z,16.80
2022-07-29T22:40:23.937Z,16.80
2022-07-29T22:42:57.838Z,16.80
2022-07-29T22:45:24.522Z,16.80
2022-07-29T22:47:55.930Z,16.80
2022-07-29T22:50:24.371Z,16.70
2022-07-29T22:52:51.378Z,16.70
2022-07-29T22:55:18.065Z,16.70
2022-07-29T22:57:45.170Z,16.70
2022-07-29T23:00:12.817Z,16.70
2022-07-29T23:02:41.736Z,16.70
2022-07-29T23:05:09.007Z,16.60
2022-07-29T23:07:36.076Z,16.60
2022-07-29T23:10:03.588Z,16.60
2022-07-29T23:12:30.249Z,16.50
2022-07-29T23:14:58.352Z,16.50
2022-07-29T23:17:25.309Z,16.40
2022-07-29T23:19:52.328Z,16.40
2022-07-29T23:22:19.318Z,16.30
2022-07-29T23:24:45.996Z,16.30
2022-07-29T23:27:13.001Z,16.20
2022-07-29T23:29:39.663Z,16.20
2022-07-29T23:32:06.585Z,16.10
2022-07-29T23:34:33.604Z,16.10
2022-07-29T23:37:00.573Z,16.00
2022-07-29T23:39:27.773Z,15.90
2022-07-29T23:41:54.452Z,16.00
2022-07-29T23:44:21.688Z,16.00
2022-07-29T23:46:48.475Z,15.90
2022-07-29T23:49:15.568Z,16.00
2022-07-29T23:51:42.354Z,15.90
2022-07-29T23:54:09.394Z,15.90
2022-07-29T23:56:36.077Z,15.90
2022-07-29T23:59:05.805Z,15.80
